Terminal Aerodrome Forecast
Issued by NWS Wakefield, VA

Home | Current Version | Previous Version | Text Only | Print | Product List | Glossary On
Versions: 1 2 3 4 5 6 7 8 9 10 11 12 13 14 15 16 17 18 19 20 21 22 23
000
FTUS41 KAKQ 010645 AAA
TAFRIC
TAF AMD
KRIC 010645Z 0107/0206 13005KT P6SM OVC025
      TEMPO 0108/0110 5SM -RA BR BKN012
     FM011200 17005KT P6SM OVC015
     FM011400 18008KT 4SM -RA BR OVC009
     FM011800 21010KT P6SM -SHRA SCT015 BKN035
     FM012200 19006KT P6SM BKN100=

USA.gov is the U.S. government's official web portal to all federal, state and local government web resources and services.